Time,TemperatureF,DewpointF,PressureIn,WindDirection,WindDirectionDegrees,WindSpeedMPH,WindSpeedGustMPH,Humidity,HourlyPrecipIn,Conditions,Clouds,dailyrainin,SoftwareType,DateUTC
2013-01-18 00:10:00,22.2,12.0,30.37,NW,307,1.0,-999.0,65,-99.99,,,0.00,weatherlink.com 1.10,2013-01-18 05:10:00,
2013-01-18 00:25:00,22.1,13.0,30.37,West,262,0.0,-999.0,67,-99.99,,,0.00,weatherlink.com 1.10,2013-01-18 05:25:00,
2013-01-18 00:40:00,22.4,14.0,30.38,WNW,294,2.0,-999.0,69,-99.99,,,0.00,weatherlink.com 1.10,2013-01-18 05:40:00,
2013-01-18 00:55:00,22.7,14.0,30.39,WNW,289,2.0,-999.0,68,-99.99,,,0.00,weatherlink.com 1.10,2013-01-18 05:55:00,
2013-01-18 01:10:00,23.0,13.0,30.40,West,275,8.0,-999.0,65,-99.99,,,0.00,weatherlink.com 1.10,2013-01-18 06:10:00,
2013-01-18 01:25:00,23.3,13.0,30.40,NW,306,9.0,-999.0,65,-99.99,,,0.00,weatherlink.com 1.10,2013-01-18 06:25:00,
2013-01-18 01:40:00,23.3,13.0,30.41,NW,321,8.0,-999.0,65,-99.99,,,0.00,weatherlink.com 1.10,2013-01-18 06:40:00,
2013-01-18 01:55:00,23.4,13.0,30.42,WNW,287,5.0,-999.0,65,-99.99,,,0.00,weatherlink.com 1.10,2013-01-18 06:55:00,
2013-01-18 02:10:00,23.3,13.0,30.43,NW,311,4.0,-999.0,65,-99.99,,,0.00,weatherlink.com 1.10,2013-01-18 07:10:00,
2013-01-18 02:25:00,23.2,14.0,30.43,WNW,302,4.0,-999.0,67,-99.99,,,0.00,weatherlink.com 1.10,2013-01-18 07:25:00,
2013-01-18 02:40:00,23.0,14.0,30.44,WNW,302,4.0,-999.0,68,-99.99,,,0.00,weatherlink.com 1.10,2013-01-18 07:40:00,
2013-01-18 02:55:00,23.1,14.0,30.45,WNW,295,5.0,-999.0,69,-99.99,,,0.00,weatherlink.com 1.10,2013-01-18 07:55:00,
2013-01-18 03:10:00,23.0,15.0,30.45,NW,306,4.0,-999.0,70,-99.99,,,0.00,weatherlink.com 1.10,2013-01-18 08:10:00,
2013-01-18 03:25:00,22.9,14.0,30.46,WNW,290,4.0,-999.0,70,-99.99,,,0.00,weatherlink.com 1.10,2013-01-18 08:25:00,
2013-01-18 03:40:00,22.8,15.0,30.46,WNW,284,4.0,-999.0,72,-99.99,,,0.00,weatherlink.com 1.10,2013-01-18 08:40:00,
2013-01-18 03:55:00,23.0,15.0,30.46,WNW,291,1.0,-999.0,71,-99.99,,,0.00,weatherlink.com 1.10,2013-01-18 08:55:00,
2013-01-18 04:10:00,23.0,15.0,30.46,West,273,0.0,-999.0,72,-99.99,,,0.00,weatherlink.com 1.10,2013-01-18 09:10:00,
2013-01-18 04:25:00,-999.0,-99.9,30.45,North,-999,-999.0,-999.0,-999,-99.99,,,0.00,weatherlink.com 1.10,2013-01-18 09:25:00,
2013-01-18 04:40:00,-999.0,-99.9,30.45,North,-999,-999.0,-999.0,-999,-99.99,,,0.00,weatherlink.com 1.10,2013-01-18 09:40:00,
2013-01-18 04:55:00,-999.0,-99.9,30.45,North,-999,-999.0,-999.0,-999,-99.99,,,0.00,weatherlink.com 1.10,2013-01-18 09:55:00,
2013-01-18 05:10:00,-999.0,-99.9,30.45,North,-999,-999.0,-999.0,-999,-99.99,,,0.00,weatherlink.com 1.10,2013-01-18 10:10:00,
2013-01-18 05:25:00,-999.0,-99.9,30.46,North,-999,-999.0,-999.0,-999,-99.99,,,0.00,weatherlink.com 1.10,2013-01-18 10:25:00,
2013-01-18 05:40:00,-999.0,-99.9,30.46,North,-999,-999.0,-999.0,-999,-99.99,,,0.00,weatherlink.com 1.10,2013-01-18 10:40:00,
2013-01-18 05:55:00,-999.0,-99.9,30.48,North,-999,-999.0,-999.0,-999,-99.99,,,0.00,weatherlink.com 1.10,2013-01-18 10:55:00,
2013-01-18 06:10:00,-999.0,-99.9,30.47,North,-999,-999.0,-999.0,-999,-99.99,,,0.00,weatherlink.com 1.10,2013-01-18 11:10:00,
2013-01-18 06:25:00,-999.0,-99.9,30.47,North,-999,-999.0,-999.0,-999,-99.99,,,0.00,weatherlink.com 1.10,2013-01-18 11:25:00,
2013-01-18 06:40:00,-999.0,-99.9,30.47,North,-999,-999.0,-999.0,-999,-99.99,,,0.00,weatherlink.com 1.10,2013-01-18 11:40:00,
2013-01-18 06:55:00,-999.0,-99.9,30.47,North,-999,-999.0,-999.0,-999,-99.99,,,0.00,weatherlink.com 1.10,2013-01-18 11:55:00,
2013-01-18 07:10:00,-999.0,-99.9,30.48,North,-999,-999.0,-999.0,-999,-99.99,,,0.00,weatherlink.com 1.10,2013-01-18 12:10:00,
2013-01-18 07:25:00,-999.0,-99.9,30.49,North,-999,-999.0,-999.0,-999,-99.99,,,0.00,weatherlink.com 1.10,2013-01-18 12:25:00,
2013-01-18 07:40:00,-999.0,-99.9,30.48,North,-999,-999.0,-999.0,-999,-99.99,,,0.00,weatherlink.com 1.10,2013-01-18 12:40:00,
2013-01-18 07:55:00,-999.0,-99.9,30.48,North,-999,-999.0,-999.0,-999,-99.99,,,0.00,weatherlink.com 1.10,2013-01-18 12:55:00,
2013-01-18 08:10:00,-999.0,-99.9,30.48,North,-999,-999.0,-999.0,-999,-99.99,,,0.00,weatherlink.com 1.10,2013-01-18 13:10:00,
2013-01-18 08:25:00,-999.0,-99.9,30.48,North,8,0.0,-999.0,-999,-99.99,,,0.00,weatherlink.com 1.10,2013-01-18 13:25:00,
2013-01-18 08:40:00,20.6,13.0,30.48,NNE,23,0.0,-999.0,71,-99.99,,,0.00,weatherlink.com 1.10,2013-01-18 13:40:00,
2013-01-18 08:55:00,22.1,13.0,30.48,SSE,160,0.0,-999.0,69,-99.99,,,0.00,weatherlink.com 1.10,2013-01-18 13:55:00,
2013-01-18 09:10:00,23.6,12.0,30.49,SE,143,0.0,-999.0,62,-99.99,,,0.00,weatherlink.com 1.10,2013-01-18 14:10:00,
2013-01-18 09:40:00,24.3,13.0,30.50,East,94,1.0,-999.0,62,-99.99,,,0.00,weatherlink.com 1.10,2013-01-18 14:40:00,
2013-01-18 09:55:00,25.1,15.0,30.49,SSW,195,1.0,-999.0,65,-99.99,,,0.00,weatherlink.com 1.10,2013-01-18 14:55:00,
2013-01-18 10:10:00,26.1,16.0,30.48,East,101,2.0,-999.0,67,-99.99,,,0.00,weatherlink.com 1.10,2013-01-18 15:10:00,
2013-01-18 10:25:00,27.7,19.0,30.48,SSW,203,6.0,-999.0,69,-99.99,,,0.00,weatherlink.com 1.10,2013-01-18 15:25:00,
2013-01-18 10:40:00,28.1,19.0,30.47,SSW,207,2.0,-999.0,70,-99.99,,,0.00,weatherlink.com 1.10,2013-01-18 15:40:00,
2013-01-18 10:55:00,28.6,20.0,30.47,SSW,203,12.0,-999.0,69,-99.99,,,0.00,weatherlink.com 1.10,2013-01-18 15:55:00,
2013-01-18 11:10:00,29.2,20.0,30.46,SSE,166,6.0,-999.0,69,-99.99,,,0.00,weatherlink.com 1.10,2013-01-18 16:10:00,
2013-01-18 11:25:00,29.8,20.0,30.45,SW,236,1.0,-999.0,66,-99.99,,,0.00,weatherlink.com 1.10,2013-01-18 16:25:00,
2013-01-18 11:40:00,30.2,20.0,30.45,SW,222,6.0,-999.0,65,-99.99,,,0.00,weatherlink.com 1.10,2013-01-18 16:40:00,
2013-01-18 11:55:00,30.2,20.0,30.44,WSW,257,4.0,-999.0,66,-99.99,,,0.00,weatherlink.com 1.10,2013-01-18 16:55:00,
2013-01-18 12:10:00,30.4,20.0,30.42,WSW,253,7.0,-999.0,66,-99.99,,,0.00,weatherlink.com 1.10,2013-01-18 17:10:00,
2013-01-18 12:25:00,30.4,20.0,30.40,SSW,208,10.0,-999.0,65,-99.99,,,0.00,weatherlink.com 1.10,2013-01-18 17:25:00,
2013-01-18 12:40:00,30.7,21.0,30.39,SSW,195,4.0,-999.0,66,-99.99,,,0.00,weatherlink.com 1.10,2013-01-18 17:40:00,
2013-01-18 12:55:00,31.3,20.0,30.38,WSW,240,1.0,-999.0,63,-99.99,,,0.00,weatherlink.com 1.10,2013-01-18 17:55:00,
2013-01-18 13:10:00,32.0,21.0,30.37,WSW,239,3.0,-999.0,63,-99.99,,,0.00,weatherlink.com 1.10,2013-01-18 18:10:00,
2013-01-18 13:25:00,32.2,19.0,30.36,SSW,192,8.0,-999.0,59,-99.99,,,0.00,weatherlink.com 1.10,2013-01-18 18:25:00,
2013-01-18 13:40:00,32.2,20.0,30.34,South,170,4.0,-999.0,60,-99.99,,,0.00,weatherlink.com 1.10,2013-01-18 18:40:00,
2013-01-18 13:55:00,32.1,19.0,30.34,SSW,211,6.0,-999.0,60,-99.99,,,0.00,weatherlink.com 1.10,2013-01-18 18:55:00,
2013-01-18 14:10:00,32.3,20.0,30.33,SSW,193,6.0,-999.0,61,-99.99,,,0.00,weatherlink.com 1.10,2013-01-18 19:10:00,
2013-01-18 14:25:00,33.3,20.0,30.32,SSW,210,9.0,-999.0,59,-99.99,,,0.00,weatherlink.com 1.10,2013-01-18 19:25:00,
2013-01-18 14:40:00,34.4,21.0,30.31,South,172,6.0,-999.0,58,-99.99,,,0.00,weatherlink.com 1.10,2013-01-18 19:40:00,
2013-01-18 14:55:00,34.2,21.0,30.29,SSE,166,11.0,-999.0,59,-99.99,,,0.00,weatherlink.com 1.10,2013-01-18 19:55:00,
2013-01-18 15:10:00,33.6,21.0,30.29,South,180,8.0,-999.0,61,-99.99,,,0.00,weatherlink.com 1.10,2013-01-18 20:10:00,
2013-01-18 15:25:00,33.3,21.0,30.28,SW,234,9.0,-999.0,62,-99.99,,,0.00,weatherlink.com 1.10,2013-01-18 20:25:00,
2013-01-18 15:40:00,33.6,22.0,30.27,South,191,8.0,-999.0,62,-99.99,,,0.00,weatherlink.com 1.10,2013-01-18 20:40:00,
2013-01-18 15:55:00,34.7,22.0,30.26,SW,231,10.0,-999.0,61,-99.99,,,0.00,weatherlink.com 1.10,2013-01-18 20:55:00,
2013-01-18 16:10:00,35.0,23.0,30.26,SW,225,11.0,-999.0,61,-99.99,,,0.00,weatherlink.com 1.10,2013-01-18 21:10:00,
2013-01-18 16:25:00,35.2,23.0,30.25,SSW,203,6.0,-999.0,62,-99.99,,,0.00,weatherlink.com 1.10,2013-01-18 21:25:00,
2013-01-18 16:40:00,35.2,23.0,30.24,SW,220,10.0,-999.0,61,-99.99,,,0.00,weatherlink.com 1.10,2013-01-18 21:40:00,
2013-01-18 16:55:00,35.2,23.0,30.23,SSW,206,8.0,-999.0,62,-99.99,,,0.00,weatherlink.com 1.10,2013-01-18 21:55:00,
2013-01-18 17:10:00,34.5,23.0,30.22,South,179,7.0,-999.0,63,-99.99,,,0.00,weatherlink.com 1.10,2013-01-18 22:10:00,
2013-01-18 17:25:00,34.5,23.0,30.21,SSW,203,10.0,-999.0,64,-99.99,,,0.00,weatherlink.com 1.10,2013-01-18 22:25:00,
2013-01-18 17:40:00,34.8,23.0,30.20,SSW,204,11.0,-999.0,63,-99.99,,,0.00,weatherlink.com 1.10,2013-01-18 22:40:00,
2013-01-18 17:55:00,35.0,23.0,30.20,SSW,204,5.0,-999.0,63,-99.99,,,0.00,weatherlink.com 1.10,2013-01-18 22:55:00,
2013-01-18 18:10:00,34.8,23.0,30.19,WSW,243,6.0,-999.0,63,-99.99,,,0.00,weatherlink.com 1.10,2013-01-18 23:10:00,
2013-01-18 18:40:00,35.1,23.0,30.17,SSW,201,13.0,-999.0,62,-99.99,,,0.00,weatherlink.com 1.10,2013-01-18 23:40:00,
2013-01-18 18:55:00,35.5,23.0,30.17,South,173,3.0,-999.0,60,-99.99,,,0.00,weatherlink.com 1.10,2013-01-18 23:55:00,
2013-01-18 19:10:00,35.5,22.0,30.16,South,188,10.0,-999.0,59,-99.99,,,0.00,weatherlink.com 1.10,2013-01-19 00:10:00,
2013-01-18 19:25:00,35.4,22.0,30.15,SSE,152,8.0,-999.0,58,-99.99,,,0.00,weatherlink.com 1.10,2013-01-19 00:25:00,
2013-01-18 19:40:00,35.3,22.0,30.14,SSE,163,15.0,-999.0,59,-99.99,,,0.00,weatherlink.com 1.10,2013-01-19 00:40:00,
2013-01-18 19:55:00,35.2,22.0,30.14,SW,219,15.0,-999.0,60,-99.99,,,0.00,weatherlink.com 1.10,2013-01-19 00:55:00,
2013-01-18 20:10:00,35.2,22.0,30.13,South,174,10.0,-999.0,60,-99.99,,,0.00,weatherlink.com 1.10,2013-01-19 01:10:00,
2013-01-18 20:25:00,35.4,23.0,30.11,SSW,194,10.0,-999.0,60,-99.99,,,0.00,weatherlink.com 1.10,2013-01-19 01:25:00,
2013-01-18 20:40:00,35.7,22.0,30.10,SW,226,18.0,-999.0,59,-99.99,,,0.00,weatherlink.com 1.10,2013-01-19 01:40:00,
2013-01-18 20:55:00,35.9,23.0,30.10,SW,236,17.0,-999.0,59,-99.99,,,0.00,weatherlink.com 1.10,2013-01-19 01:55:00,
2013-01-18 21:10:00,36.1,23.0,30.09,SSW,198,12.0,-999.0,59,-99.99,,,0.00,weatherlink.com 1.10,2013-01-19 02:10:00,
2013-01-18 21:25:00,36.6,23.0,30.09,SSW,210,9.0,-999.0,58,-99.99,,,0.00,weatherlink.com 1.10,2013-01-19 02:25:00,
2013-01-18 21:40:00,36.9,23.0,30.10,SW,216,9.0,-999.0,58,-99.99,,,0.00,weatherlink.com 1.10,2013-01-19 02:40:00,
2013-01-18 21:55:00,36.8,24.0,30.11,NW,306,6.0,-999.0,59,-99.99,,,0.00,weatherlink.com 1.10,2013-01-19 02:55:00,
2013-01-18 22:10:00,36.8,24.0,30.10,SSW,207,9.0,-999.0,59,-99.99,,,0.00,weatherlink.com 1.10,2013-01-19 03:10:00,
2013-01-18 22:25:00,37.1,24.0,30.09,WNW,302,3.0,-999.0,59,-99.99,,,0.00,weatherlink.com 1.10,2013-01-19 03:25:00,
2013-01-18 22:40:00,37.0,24.0,30.08,West,260,11.0,-999.0,60,-99.99,,,0.00,weatherlink.com 1.10,2013-01-19 03:40:00,
2013-01-18 22:55:00,37.2,25.0,30.08,SSW,207,13.0,-999.0,61,-99.99,,,0.00,weatherlink.com 1.10,2013-01-19 03:55:00,
2013-01-18 23:10:00,37.1,25.0,30.07,SW,221,12.0,-999.0,62,-99.99,,,0.00,weatherlink.com 1.10,2013-01-19 04:10:00,
2013-01-18 23:25:00,37.3,26.0,30.07,SSW,198,6.0,-999.0,63,-99.99,,,0.00,weatherlink.com 1.10,2013-01-19 04:25:00,
2013-01-18 23:40:00,37.4,26.0,30.06,SW,217,6.0,-999.0,63,-99.99,,,0.00,weatherlink.com 1.10,2013-01-19 04:40:00,
2013-01-18 23:55:00,37.4,26.0,30.06,SW,215,8.0,-999.0,63,-99.99,,,0.00,weatherlink.com 1.10,2013-01-19 04:55:00,